Time;durP1;ratioP1;P1;durP2;ratioP2;P2;SDS_P1;SDS_P2;PMS_P1;PMS_P2;Temp;Humidity;BMP_temperature;BMP_pressure;BME280_temperature;BME280_humidity;BME280_pressure;Samples;Min_cycle;Max_cycle;Signal;HPM_P1;HPM_P2
2022/01/05 00:01:15;;;;;;;7.30;6.60;;;4.40;99.90;;;;;;5007017;28;20022;-74
2022/01/05 00:03:41;;;;;;;6.80;6.28;;;4.30;99.90;;;;;;5015572;28;20022;-74
2022/01/05 00:06:06;;;;;;;6.28;5.78;;;4.20;99.90;;;;;;5018573;28;20026;-74
2022/01/05 00:08:32;;;;;;;5.97;5.50;;;4.30;99.90;;;;;;5024308;28;20649;-74
2022/01/05 00:10:58;;;;;;;7.20;6.53;;;4.30;99.90;;;;;;5026632;28;20017;-74
2022/01/05 00:13:23;;;;;;;6.75;6.05;;;4.20;99.90;;;;;;5032954;28;20051;-74
2022/01/05 00:15:49;;;;;;;6.88;6.28;;;4.10;99.90;;;;;;5025031;28;20403;-74
2022/01/05 00:18:14;;;;;;;6.43;5.85;;;4.10;99.90;;;;;;5029896;28;20032;-74
2022/01/05 00:20:40;;;;;;;6.60;6.10;;;4.10;99.90;;;;;;5000635;28;20041;-74
2022/01/05 00:23:05;;;;;;;7.00;6.40;;;4.10;99.90;;;;;;5018339;28;20026;-74
2022/01/05 00:25:31;;;;;;;6.88;6.28;;;4.20;99.90;;;;;;5021678;28;20100;-73
2022/01/05 00:27:56;;;;;;;7.45;6.82;;;4.10;99.90;;;;;;5013540;28;20028;-72
2022/01/05 00:30:22;;;;;;;9.02;7.28;;;4.10;99.90;;;;;;5026587;28;20406;-73
2022/01/05 00:32:47;;;;;;;7.80;7.10;;;4.00;99.90;;;;;;5014077;28;20026;-74
2022/01/05 00:35:13;;;;;;;7.38;6.78;;;4.00;99.90;;;;;;5000550;28;20030;-74
2022/01/05 00:37:38;;;;;;;7.70;6.95;;;4.00;99.90;;;;;;5022159;28;20048;-74
2022/01/05 00:40:06;;;;;;;8.95;8.15;;;4.00;99.90;;;;;;5002824;28;20034;-73
2022/01/05 00:42:31;;;;;;;7.70;7.00;;;4.00;99.90;;;;;;5025040;28;20316;-75
2022/01/05 00:44:57;;;;;;;8.20;7.50;;;4.10;99.90;;;;;;4994513;28;20029;-75
2022/01/05 00:47:23;;;;;;;8.15;7.38;;;4.10;99.90;;;;;;5002555;28;20026;-74
2022/01/05 00:49:48;;;;;;;6.88;6.30;;;4.20;99.90;;;;;;5000785;28;20685;-75
2022/01/05 00:52:14;;;;;;;8.23;7.53;;;4.10;99.90;;;;;;5011909;28;20060;-75
2022/01/05 00:54:40;;;;;;;6.78;6.22;;;4.00;99.90;;;;;;5013782;28;20079;-74
2022/01/05 00:57:06;;;;;;;6.53;6.03;;;4.00;99.90;;;;;;5012380;28;20109;-74
2022/01/05 00:59:32;;;;;;;9.23;8.43;;;4.00;99.90;;;;;;5013458;28;20038;-74
2022/01/05 01:01:57;;;;;;;7.93;7.22;;;4.00;99.90;;;;;;5013876;28;20540;-76
2022/01/05 01:04:23;;;;;;;7.65;6.95;;;4.10;99.90;;;;;;5010527;28;20387;-74
2022/01/05 01:06:49;;;;;;;10.50;9.00;;;4.20;99.90;;;;;;5024395;28;20037;-74
2022/01/05 01:09:14;;;;;;;9.68;8.68;;;4.10;99.90;;;;;;4997834;28;20034;-75
2022/01/05 01:11:40;;;;;;;9.73;8.82;;;4.00;99.90;;;;;;4976380;28;20037;-76
2022/01/05 01:14:06;;;;;;;8.10;7.40;;;4.00;99.90;;;;;;5009372;28;20131;-73
2022/01/05 01:16:31;;;;;;;9.85;8.85;;;4.00;99.90;;;;;;5013028;28;20423;-72
2022/01/05 01:18:57;;;;;;;8.35;7.55;;;4.00;99.90;;;;;;4995579;28;20026;-74
2022/01/05 01:21:22;;;;;;;9.10;8.20;;;4.10;99.90;;;;;;5013254;28;20092;-73
2022/01/05 01:23:55;;;;;;;9.57;8.52;;;4.00;99.90;;;;;;5012242;28;20026;-73
2022/01/05 01:26:23;;;;;;;9.23;8.43;;;3.90;99.90;;;;;;5013191;28;20017;-72
2022/01/05 01:28:49;;;;;;;10.02;9.02;;;3.90;99.90;;;;;;5012977;28;20093;-73
2022/01/05 01:31:15;;;;;;;9.73;8.82;;;3.90;99.90;;;;;;5012766;28;20026;-73
2022/01/05 01:33:40;;;;;;;9.13;8.32;;;3.90;99.90;;;;;;5012995;28;20030;-73
2022/01/05 01:36:06;;;;;;;9.95;9.05;;;4.00;99.90;;;;;;4991347;28;20029;-73
2022/01/05 01:38:31;;;;;;;9.98;9.00;;;4.00;99.90;;;;;;5011427;28;20022;-73
2022/01/05 01:40:57;;;;;;;12.25;10.13;;;3.90;99.90;;;;;;5012012;28;20032;-72
2022/01/05 01:43:23;;;;;;;10.77;9.70;;;3.90;99.90;;;;;;5008849;28;20070;-73
2022/01/05 01:45:48;;;;;;;11.43;10.27;;;4.20;99.90;;;;;;5010829;28;20030;-73
2022/01/05 01:48:14;;;;;;;10.27;9.38;;;4.00;99.90;;;;;;5012846;28;20026;-73
2022/01/05 01:50:39;;;;;;;10.15;9.15;;;3.90;99.90;;;;;;5021328;28;20030;-73
2022/01/05 01:53:05;;;;;;;10.07;9.07;;;3.90;99.90;;;;;;5001328;28;20034;-73
2022/01/05 01:55:30;;;;;;;9.73;8.82;;;4.00;99.90;;;;;;5006331;28;20518;-73
2022/01/05 01:57:56;;;;;;;10.82;9.82;;;3.90;99.90;;;;;;4991780;28;20531;-72
2022/01/05 02:00:22;;;;;;;10.32;9.32;;;3.90;99.90;;;;;;4999377;28;20116;-73
2022/01/05 02:02:48;;;;;;;11.05;9.93;;;4.00;99.90;;;;;;5015515;28;20471;-72
2022/01/05 02:05:13;;;;;;;9.88;8.95;;;4.00;99.90;;;;;;5013241;28;20025;-72
2022/01/05 02:07:39;;;;;;;8.95;8.15;;;3.90;99.90;;;;;;5015506;28;20556;-72
2022/01/05 02:10:07;;;;;;;11.48;10.27;;;4.00;99.90;;;;;;5012597;28;20034;-72
2022/01/05 02:12:32;;;;;;;8.90;8.10;;;4.00;99.90;;;;;;4991759;28;20072;-72
2022/01/05 02:14:58;;;;;;;9.35;8.45;;;4.00;99.90;;;;;;5022211;28;20029;-72
2022/01/05 02:17:40;;;;;;;8.90;8.00;;;4.00;99.90;;;;;;4994063;28;20034;-74
2022/01/05 02:20:19;;;;;;;8.95;8.00;;;4.00;99.90;;;;;;4975117;28;20563;-76
2022/01/05 02:22:46;;;;;;;10.30;8.88;;;4.00;99.90;;;;;;4981833;28;20033;-75
2022/01/05 02:25:12;;;;;;;9.55;8.65;;;4.00;99.90;;;;;;5004039;28;20057;-75
2022/01/05 02:27:39;;;;;;;10.25;9.25;;;4.00;99.90;;;;;;5012532;28;20022;-75
2022/01/05 02:30:06;;;;;;;9.48;8.48;;;4.00;99.90;;;;;;4992572;28;20182;-76
2022/01/05 02:32:32;;;;;;;10.10;9.02;;;4.00;99.90;;;;;;5004452;28;20037;-75
2022/01/05 02:34:57;;;;;;;10.23;9.23;;;3.90;99.90;;;;;;4987646;28;20026;-74
2022/01/05 02:37:23;;;;;;;10.35;9.35;;;3.90;99.90;;;;;;4975220;28;20105;-76
2022/01/05 02:39:48;;;;;;;11.23;10.02;;;4.10;99.90;;;;;;5006740;28;20021;-75
2022/01/05 02:42:25;;;;;;;11.52;10.32;;;4.10;99.90;;;;;;5011862;28;20468;-74
2022/01/05 02:44:50;;;;;;;10.82;9.65;;;4.00;99.90;;;;;;4998983;28;20025;-74
2022/01/05 02:47:16;;;;;;;9.80;8.80;;;4.00;99.90;;;;;;5003227;28;20030;-74
2022/01/05 02:49:41;;;;;;;9.70;8.70;;;4.00;99.90;;;;;;4992564;28;20035;-75
2022/01/05 02:52:07;;;;;;;9.77;8.77;;;4.00;99.90;;;;;;4992248;28;20034;-75
2022/01/05 02:54:33;;;;;;;10.48;9.40;;;4.00;99.90;;;;;;4989294;28;20034;-75
2022/01/05 02:56:58;;;;;;;10.27;9.23;;;4.00;99.90;;;;;;5012004;28;20034;-75
2022/01/05 02:59:24;;;;;;;10.75;9.65;;;4.00;99.90;;;;;;4981348;28;20069;-75
2022/01/05 03:01:49;;;;;;;10.00;9.00;;;4.00;99.90;;;;;;5003364;28;20084;-74
2022/01/05 03:04:15;;;;;;;10.00;9.00;;;4.00;99.90;;;;;;4987685;28;20391;-74
2022/01/05 03:06:40;;;;;;;11.38;10.18;;;4.00;99.90;;;;;;5000319;28;20026;-75
2022/01/05 03:09:06;;;;;;;12.73;11.20;;;4.00;99.90;;;;;;4998821;28;20026;-74
2022/01/05 03:11:31;;;;;;;12.13;10.70;;;4.00;99.90;;;;;;5009583;28;20030;-75
2022/01/05 03:13:57;;;;;;;10.93;9.82;;;4.10;99.90;;;;;;4995893;28;20038;-74
2022/01/05 03:16:22;;;;;;;10.85;9.65;;;4.00;99.90;;;;;;5019551;28;20109;-74
2022/01/05 03:18:48;;;;;;;11.65;10.10;;;4.00;99.90;;;;;;5017241;28;20088;-74
2022/01/05 03:21:13;;;;;;;10.93;9.82;;;4.00;99.90;;;;;;5003710;28;20088;-74
2022/01/05 03:23:39;;;;;;;11.27;10.07;;;4.00;99.90;;;;;;5005169;28;20033;-74
2022/01/05 03:26:04;;;;;;;12.40;10.52;;;4.10;99.90;;;;;;5008610;28;20033;-74
2022/01/05 03:28:30;;;;;;;10.90;9.80;;;4.00;99.90;;;;;;4992635;28;20393;-74
2022/01/05 03:30:55;;;;;;;11.38;9.68;;;4.00;99.90;;;;;;4998497;28;20091;-76
2022/01/05 03:33:21;;;;;;;11.38;10.15;;;4.00;99.90;;;;;;4991450;28;20032;-75
2022/01/05 03:35:48;;;;;;;11.70;10.18;;;4.00;99.90;;;;;;5004097;28;20054;-76
2022/01/05 03:38:16;;;;;;;9.68;8.68;;;4.00;99.90;;;;;;5005202;28;20022;-76
2022/01/05 03:40:43;;;;;;;9.93;8.00;;;4.00;99.90;;;;;;4999884;28;20030;-76
2022/01/05 03:43:08;;;;;;;10.40;8.93;;;4.10;99.90;;;;;;4998126;28;20023;-76
2022/01/05 03:45:36;;;;;;;8.27;7.43;;;4.20;99.90;;;;;;5003847;28;20389;-75
2022/01/05 03:48:04;;;;;;;9.88;8.77;;;4.10;99.90;;;;;;5006983;28;20033;-75
2022/01/05 03:50:29;;;;;;;9.48;8.48;;;3.90;99.90;;;;;;5003504;28;20030;-75
2022/01/05 03:52:55;;;;;;;9.68;8.68;;;4.10;99.90;;;;;;5013881;28;20041;-75
2022/01/05 03:55:20;;;;;;;9.43;8.38;;;4.30;99.90;;;;;;5006920;28;20034;-76
2022/01/05 03:57:46;;;;;;;10.57;9.13;;;4.10;99.90;;;;;;5013479;28;20491;-76
2022/01/05 04:00:12;;;;;;;10.27;9.05;;;4.00;99.90;;;;;;4995224;28;20157;-76
2022/01/05 04:02:37;;;;;;;14.35;11.75;;;4.10;99.90;;;;;;5010621;28;20040;-75
2022/01/05 04:05:03;;;;;;;10.02;8.95;;;4.10;99.90;;;;;;5004813;28;20038;-76
2022/01/05 04:07:28;;;;;;;10.65;9.55;;;4.10;99.90;;;;;;5008376;28;20029;-76
2022/01/05 04:09:54;;;;;;;10.57;9.25;;;4.20;99.90;;;;;;5002813;28;20531;-76
2022/01/05 04:12:19;;;;;;;10.88;9.68;;;4.10;99.90;;;;;;4984005;28;20488;-75
2022/01/05 04:14:45;;;;;;;11.18;10.00;;;4.20;99.90;;;;;;5013008;28;20064;-76
2022/01/05 04:17:11;;;;;;;12.13;10.35;;;4.20;99.90;;;;;;4996565;28;20124;-75
2022/01/05 04:19:36;;;;;;;13.82;10.60;;;4.20;99.90;;;;;;5002117;28;20056;-75
2022/01/05 04:22:02;;;;;;;11.05;9.95;;;4.10;99.90;;;;;;4983554;28;20392;-75
2022/01/05 04:24:27;;;;;;;11.43;10.23;;;4.20;99.90;;;;;;4990016;28;20026;-76
2022/01/05 04:26:53;;;;;;;11.05;9.90;;;4.20;99.90;;;;;;5021139;28;20017;-75
2022/01/05 04:29:19;;;;;;;12.27;9.95;;;4.20;99.90;;;;;;5014661;28;20026;-76
2022/01/05 04:31:45;;;;;;;12.52;10.57;;;4.20;99.90;;;;;;5003744;28;20069;-75
2022/01/05 04:34:11;;;;;;;10.70;9.52;;;4.30;99.90;;;;;;5008973;28;20037;-74
2022/01/05 04:36:36;;;;;;;11.52;10.32;;;4.40;99.90;;;;;;5014261;28;20034;-75
2022/01/05 04:39:02;;;;;;;11.43;9.82;;;4.20;99.90;;;;;;4996999;28;20117;-75
2022/01/05 04:41:28;;;;;;;13.38;10.93;;;4.20;99.90;;;;;;5013636;28;20503;-75
2022/01/05 04:43:54;;;;;;;11.93;10.23;;;4.30;99.90;;;;;;5014211;28;20034;-73
2022/01/05 04:46:19;;;;;;;12.55;10.77;;;4.30;99.90;;;;;;5001575;28;20030;-73
2022/01/05 04:48:45;;;;;;;12.27;10.57;;;4.30;99.90;;;;;;5008912;28;20506;-73
2022/01/05 04:51:10;;;;;;;12.20;10.90;;;4.30;99.90;;;;;;5003963;28;20026;-74
2022/01/05 04:53:36;;;;;;;11.25;9.93;;;4.30;99.90;;;;;;5001125;28;20171;-73
2022/01/05 04:56:01;;;;;;;12.43;10.32;;;4.20;99.90;;;;;;5013285;28;20022;-74
2022/01/05 04:58:27;;;;;;;10.65;9.55;;;4.40;99.90;;;;;;5006850;28;20092;-73
2022/01/05 05:00:53;;;;;;;12.15;10.95;;;4.40;99.90;;;;;;5007185;28;20080;-73
2022/01/05 05:03:18;;;;;;;12.38;10.13;;;4.40;99.90;;;;;;4998761;28;20045;-72
2022/01/05 05:05:44;;;;;;;12.90;9.68;;;4.40;99.90;;;;;;5013145;28;20049;-73
2022/01/05 05:08:10;;;;;;;13.65;10.40;;;4.40;99.90;;;;;;5013804;28;20022;-73
2022/01/05 05:10:36;;;;;;;9.70;8.68;;;4.40;99.90;;;;;;5013262;28;20049;-73
2022/01/05 05:13:09;;;;;;;10.77;8.70;;;4.50;99.90;;;;;;5016569;28;20021;-73
2022/01/05 05:15:35;;;;;;;9.38;8.48;;;4.40;99.90;;;;;;5013431;28;20030;-73
2022/01/05 05:18:01;;;;;;;10.15;8.65;;;4.40;99.90;;;;;;5012970;28;20022;-73
2022/01/05 05:20:27;;;;;;;10.25;8.55;;;4.50;99.90;;;;;;4982758;28;20042;-73
2022/01/05 05:22:52;;;;;;;13.10;9.48;;;4.50;99.90;;;;;;5005982;28;20117;-73
2022/01/05 05:25:18;;;;;;;9.43;7.95;;;4.60;99.90;;;;;;5003270;28;20426;-73
2022/01/05 05:27:43;;;;;;;10.27;8.13;;;4.50;99.90;;;;;;4995721;28;20030;-74
2022/01/05 05:30:09;;;;;;;8.40;7.53;;;4.60;99.90;;;;;;5013186;28;20368;-74
2022/01/05 05:32:34;;;;;;;8.98;8.07;;;4.50;99.90;;;;;;5020493;28;20025;-74
2022/01/05 05:35:00;;;;;;;8.15;7.30;;;4.60;99.90;;;;;;5014840;28;20034;-74
2022/01/05 05:37:25;;;;;;;8.25;7.45;;;4.60;99.90;;;;;;5000767;28;20113;-74
2022/01/05 05:39:51;;;;;;;10.65;6.22;;;4.50;99.90;;;;;;5000147;28;20392;-74
2022/01/05 05:42:17;;;;;;;12.63;10.70;;;4.50;99.90;;;;;;5020410;28;20068;-74
2022/01/05 05:44:43;;;;;;;38.72;29.15;;;4.60;99.90;;;;;;5018506;28;20047;-74
2022/01/05 05:47:09;;;;;;;120.13;74.50;;;4.60;99.90;;;;;;5005510;28;20060;-75
2022/01/05 05:49:35;;;;;;;60.10;35.80;;;4.60;99.90;;;;;;5007222;28;20067;-75
2022/01/05 05:52:00;;;;;;;65.88;40.35;;;4.60;99.90;;;;;;5012693;28;20037;-75
2022/01/05 05:54:26;;;;;;;113.10;95.53;;;4.60;99.90;;;;;;4998930;28;20045;-74
2022/01/05 05:56:51;;;;;;;14.63;13.13;;;4.50;99.90;;;;;;5020618;28;20065;-74
2022/01/05 05:59:17;;;;;;;9.38;8.48;;;4.60;99.90;;;;;;5019177;28;20196;-71
2022/01/05 06:01:42;;;;;;;4.15;3.75;;;4.50;99.90;;;;;;5024652;28;20022;-73
2022/01/05 06:04:08;;;;;;;4.68;4.03;;;4.50;99.90;;;;;;5011821;28;20028;-73
2022/01/05 06:06:34;;;;;;;3.13;2.42;;;4.10;99.90;;;;;;5000398;28;20109;-73
2022/01/05 06:08:59;;;;;;;7.15;5.00;;;2.50;99.90;;;;;;4999626;28;20484;-74
2022/01/05 06:11:25;;;;;;;9.85;5.93;;;2.20;99.90;;;;;;5001570;28;20021;-74
2022/01/05 06:13:52;;;;;;;5.00;2.63;;;1.90;99.90;;;;;;5018331;28;20076;-73
2022/01/05 06:16:18;;;;;;;5.85;4.20;;;1.80;99.90;;;;;;4982604;28;20022;-73
2022/01/05 06:18:44;;;;;;;2.53;1.38;;;1.80;99.90;;;;;;4981865;28;20029;-74
2022/01/05 06:21:09;;;;;;;3.33;2.55;;;1.90;99.90;;;;;;5012331;28;20088;-75
2022/01/05 06:23:35;;;;;;;4.20;2.28;;;1.90;99.90;;;;;;4981486;28;20457;-74
2022/01/05 06:26:00;;;;;;;1.38;1.10;;;1.90;99.90;;;;;;5012246;28;20514;-74
2022/01/05 06:28:26;;;;;;;7.07;5.10;;;1.90;99.90;;;;;;5012350;28;20036;-74
2022/01/05 06:30:51;;;;;;;5.45;3.33;;;1.90;99.90;;;;;;5007703;28;20113;-74
2022/01/05 06:33:17;;;;;;;1.90;1.33;;;1.90;99.90;;;;;;5001335;28;20096;-74
2022/01/05 06:35:42;;;;;;;1.58;1.02;;;2.00;99.90;;;;;;5007248;28;20029;-75
2022/01/05 06:38:08;;;;;;;1.45;0.88;;;1.90;99.90;;;;;;4999400;28;20030;-74
2022/01/05 06:40:35;;;;;;;0.85;0.70;;;2.00;99.90;;;;;;5005634;28;20484;-74
2022/01/05 06:43:01;;;;;;;2.55;2.15;;;2.10;99.90;;;;;;5005436;28;20034;-74
2022/01/05 06:45:27;;;;;;;2.40;2.20;;;2.00;99.90;;;;;;5001076;28;20422;-74
2022/01/05 06:47:53;;;;;;;0.80;0.70;;;2.00;99.90;;;;;;4999138;28;20030;-74
2022/01/05 06:50:18;;;;;;;1.88;1.33;;;1.90;99.90;;;;;;5011557;28;20022;-74
2022/01/05 06:52:44;;;;;;;2.28;0.93;;;2.00;99.90;;;;;;4999613;28;20037;-74
2022/01/05 06:55:10;;;;;;;1.38;1.23;;;2.00;99.90;;;;;;5020413;28;20036;-75
2022/01/05 06:57:39;;;;;;;0.82;0.82;;;2.00;99.90;;;;;;5012069;28;20022;-73
2022/01/05 07:00:05;;;;;;;0.93;0.90;;;2.00;99.90;;;;;;5024509;28;20506;-73
2022/01/05 07:02:31;;;;;;;1.35;1.10;;;2.10;99.90;;;;;;5009111;28;20440;-74
2022/01/05 07:04:56;;;;;;;5.10;4.65;;;2.10;99.90;;;;;;5004497;28;20061;-74
2022/01/05 07:07:22;;;;;;;1.85;1.10;;;2.00;99.90;;;;;;5012731;28;20102;-74
2022/01/05 07:09:48;;;;;;;1.00;0.90;;;2.10;99.90;;;;;;4994143;28;20026;-74
2022/01/05 07:12:14;;;;;;;0.80;0.80;;;2.10;99.90;;;;;;5002846;28;20484;-74
2022/01/05 07:14:40;;;;;;;1.90;1.40;;;2.10;99.90;;;;;;4993994;28;20042;-75
2022/01/05 07:17:05;;;;;;;2.35;1.20;;;2.10;99.90;;;;;;4998530;28;20169;-75
2022/01/05 07:19:31;;;;;;;1.45;1.10;;;2.10;99.90;;;;;;4987569;28;20030;-75
2022/01/05 07:21:56;;;;;;;3.30;1.13;;;2.10;99.90;;;;;;5004787;28;20041;-75
2022/01/05 07:24:22;;;;;;;3.95;0.90;;;2.00;99.90;;;;;;5002441;28;20471;-74
2022/01/05 07:26:48;;;;;;;4.85;1.48;;;2.00;99.90;;;;;;5000799;28;20030;-75
2022/01/05 07:29:15;;;;;;;2.17;1.10;;;1.80;99.90;;;;;;5009724;28;20080;-74
2022/01/05 07:31:42;;;;;;;2.58;1.30;;;1.70;99.90;;;;;;4991580;28;20079;-74
2022/01/05 07:34:08;;;;;;;2.28;1.00;;;1.70;99.90;;;;;;4984848;28;20025;-74
2022/01/05 07:36:33;;;;;;;1.80;1.10;;;1.70;99.90;;;;;;5002494;28;20033;-75
2022/01/05 07:38:59;;;;;;;2.75;1.48;;;1.80;99.90;;;;;;4991291;28;20045;-76
2022/01/05 07:41:25;;;;;;;2.35;1.33;;;1.80;99.90;;;;;;5008910;28;20495;-76
2022/01/05 07:43:51;;;;;;;2.67;1.60;;;1.80;99.90;;;;;;4984224;28;20032;-75
2022/01/05 07:46:18;;;;;;;3.38;1.27;;;1.90;99.90;;;;;;5001012;28;20022;-73
2022/01/05 07:48:43;;;;;;;2.10;1.10;;;1.90;99.90;;;;;;5028183;28;20057;-75
2022/01/05 07:51:09;;;;;;;2.33;1.60;;;1.80;99.90;;;;;;4998220;28;20112;-74
2022/01/05 07:53:34;;;;;;;1.92;1.52;;;1.80;99.90;;;;;;5015093;28;20030;-73
2022/01/05 07:56:00;;;;;;;1.60;1.50;;;1.80;99.90;;;;;;5015281;28;20062;-74
2022/01/05 07:58:27;;;;;;;2.28;1.90;;;1.90;99.90;;;;;;5009131;28;20017;-74
2022/01/05 08:00:52;;;;;;;3.45;1.67;;;1.90;99.90;;;;;;5009282;28;20116;-74
2022/01/05 08:03:19;;;;;;;2.10;1.60;;;1.90;99.90;;;;;;5009954;28;20087;-75
2022/01/05 08:05:44;;;;;;;2.88;1.55;;;2.00;99.90;;;;;;5001380;28;20022;-74
2022/01/05 08:08:10;;;;;;;2.35;1.70;;;2.00;99.90;;;;;;5014710;28;20032;-75
2022/01/05 08:10:36;;;;;;;3.05;1.70;;;2.00;99.90;;;;;;4997344;28;20057;-75
2022/01/05 08:13:02;;;;;;;6.43;2.25;;;2.00;99.90;;;;;;5001639;28;20149;-75
2022/01/05 08:15:28;;;;;;;4.30;2.10;;;2.00;99.90;;;;;;5028023;28;20025;-75
2022/01/05 08:17:53;;;;;;;4.35;2.53;;;2.10;99.90;;;;;;5014630;28;20042;-75
2022/01/05 08:20:19;;;;;;;6.53;2.35;;;2.00;99.90;;;;;;5014425;28;20029;-75
2022/01/05 08:22:46;;;;;;;5.20;2.47;;;2.00;99.90;;;;;;5012685;28;20030;-75
2022/01/05 08:25:15;;;;;;;4.75;2.72;;;2.00;99.90;;;;;;5014122;28;20025;-75
2022/01/05 08:27:46;;;;;;;5.90;3.60;;;1.90;99.90;;;;;;5011921;28;20133;-75
2022/01/05 08:30:14;;;;;;;8.40;2.75;;;2.00;99.90;;;;;;5017088;28;20075;-74
2022/01/05 08:32:40;;;;;;;5.60;2.78;;;1.90;99.90;;;;;;5007137;28;20121;-75
2022/01/05 08:35:06;;;;;;;6.22;3.28;;;1.90;99.90;;;;;;5012135;28;20105;-75
2022/01/05 08:37:31;;;;;;;8.63;3.78;;;1.90;99.90;;;;;;5013755;28;20029;-74
2022/01/05 08:39:57;;;;;;;5.53;3.20;;;1.90;99.90;;;;;;5014177;28;20101;-74
2022/01/05 08:42:22;;;;;;;4.60;3.20;;;1.90;99.90;;;;;;4996586;28;20030;-75
2022/01/05 08:44:48;;;;;;;4.80;3.17;;;1.80;99.90;;;;;;4992453;28;20018;-74
2022/01/05 08:47:13;;;;;;;7.15;3.42;;;1.90;99.90;;;;;;5013730;28;20447;-74
2022/01/05 08:49:39;;;;;;;7.43;3.78;;;1.80;99.90;;;;;;5014184;28;20483;-75
2022/01/05 08:52:05;;;;;;;6.65;3.50;;;1.80;99.90;;;;;;5013887;28;20109;-75
2022/01/05 08:54:30;;;;;;;7.22;3.53;;;1.80;99.90;;;;;;5019860;28;20153;-75
2022/01/05 08:56:56;;;;;;;7.18;4.25;;;1.80;99.90;;;;;;5013745;28;20033;-74
2022/01/05 08:59:21;;;;;;;7.90;4.18;;;1.80;99.90;;;;;;5013986;28;20030;-75
2022/01/05 09:01:47;;;;;;;8.70;3.80;;;1.90;99.90;;;;;;5013532;28;20084;-75
2022/01/05 09:04:12;;;;;;;8.73;4.40;;;1.80;99.90;;;;;;5013650;28;20473;-75
2022/01/05 09:06:38;;;;;;;8.25;4.65;;;1.70;99.90;;;;;;4997096;28;20021;-74
2022/01/05 09:09:04;;;;;;;7.20;4.47;;;1.70;99.90;;;;;;4996776;28;20050;-75
2022/01/05 09:11:30;;;;;;;7.28;4.13;;;1.70;99.90;;;;;;5013946;28;20041;-74
2022/01/05 09:13:55;;;;;;;6.60;5.00;;;1.60;99.90;;;;;;4995989;28;20559;-75
2022/01/05 09:16:21;;;;;;;9.23;4.82;;;1.60;99.90;;;;;;5013404;28;20022;-75
2022/01/05 09:18:47;;;;;;;9.02;4.63;;;1.60;99.90;;;;;;4991961;28;20033;-75
2022/01/05 09:21:12;;;;;;;7.90;4.95;;;1.60;99.90;;;;;;5013384;28;20057;-74
2022/01/05 09:23:38;;;;;;;10.05;5.63;;;1.60;99.90;;;;;;5013179;28;20068;-75
2022/01/05 09:26:03;;;;;;;8.32;5.32;;;1.60;99.90;;;;;;5005863;28;20026;-74
2022/01/05 09:28:29;;;;;;;7.95;5.03;;;1.50;99.90;;;;;;5007830;28;20022;-75
2022/01/05 09:30:55;;;;;;;8.30;4.93;;;1.50;99.90;;;;;;5013307;28;20472;-75
2022/01/05 09:33:23;;;;;;;9.75;5.00;;;1.50;99.90;;;;;;5013250;28;20062;-74
2022/01/05 09:35:49;;;;;;;8.52;5.03;;;1.50;99.90;;;;;;5013005;28;20033;-75
2022/01/05 09:38:34;;;;;;;8.07;4.55;;;1.60;99.90;;;;;;5013235;28;20064;-74
2022/01/05 09:43:55;;;;;;;10.55;5.03;;;1.70;99.90;;;;;;5013021;28;20033;-75
2022/01/05 09:46:44;;;;;;;9.63;4.60;;;1.80;99.90;;;;;;5012391;28;20518;-75
2022/01/05 09:49:22;;;;;;;7.90;4.30;;;1.90;99.90;;;;;;4988668;28;20030;-75
2022/01/05 09:51:51;;;;;;;7.45;4.47;;;1.90;99.90;;;;;;5012859;28;20454;-74
2022/01/05 09:54:17;;;;;;;6.13;3.80;;;1.90;99.90;;;;;;5012707;28;20030;-75
2022/01/05 09:56:43;;;;;;;8.05;3.78;;;1.90;99.90;;;;;;5006210;28;20480;-75
2022/01/05 09:59:09;;;;;;;6.07;3.10;;;1.90;99.90;;;;;;4988592;28;20525;-74
2022/01/05 10:01:36;;;;;;;8.82;3.50;;;1.80;99.90;;;;;;4984614;28;20050;-75
2022/01/05 10:04:03;;;;;;;6.78;2.92;;;1.80;99.90;;;;;;4995439;28;20053;-75
2022/01/05 10:06:31;;;;;;;6.38;2.80;;;1.80;99.90;;;;;;5006000;28;20026;-74
2022/01/05 10:08:56;;;;;;;7.25;2.83;;;1.80;99.90;;;;;;4997937;28;20018;-75
2022/01/05 10:11:23;;;;;;;7.70;3.10;;;1.70;99.90;;;;;;4994713;28;20068;-75
2022/01/05 10:13:50;;;;;;;6.75;2.80;;;1.60;99.90;;;;;;5007746;28;20021;-74
2022/01/05 10:16:15;;;;;;;8.40;3.00;;;1.60;99.90;;;;;;5023905;28;20032;-74
2022/01/05 10:18:44;;;;;;;7.47;2.85;;;1.60;99.90;;;;;;4996811;28;20029;-75
2022/01/05 10:21:14;;;;;;;7.13;2.78;;;1.60;99.90;;;;;;5005282;28;20045;-75
2022/01/05 10:24:06;;;;;;;7.82;2.97;;;1.70;99.90;;;;;;5011681;28;20022;-75
2022/01/05 10:26:38;;;;;;;9.50;3.08;;;1.80;99.90;;;;;;4985652;28;20153;-75
2022/01/05 10:29:15;;;;;;;6.57;2.70;;;1.90;99.90;;;;;;4981577;28;20026;-75
2022/01/05 10:31:41;;;;;;;6.05;3.08;;;1.90;99.90;;;;;;4999486;28;20149;-75
2022/01/05 10:34:15;;;;;;;7.40;2.80;;;1.90;99.90;;;;;;4998787;28;20053;-74
2022/01/05 10:36:45;;;;;;;8.57;2.75;;;1.90;99.90;;;;;;4998598;28;20026;-75
2022/01/05 10:39:11;;;;;;;5.18;2.72;;;1.90;99.90;;;;;;4986404;28;20387;-75
2022/01/05 10:41:38;;;;;;;6.82;2.70;;;1.90;99.90;;;;;;5006688;28;20026;-75
2022/01/05 10:44:29;;;;;;;8.50;3.20;;;1.80;99.90;;;;;;5011301;28;20119;-75
2022/01/05 10:46:57;;;;;;;8.13;2.97;;;1.90;99.90;;;;;;5009655;28;20056;-75
2022/01/05 10:49:29;;;;;;;7.20;3.13;;;1.80;99.90;;;;;;4994447;28;20022;-75
2022/01/05 10:51:56;;;;;;;7.97;3.30;;;1.90;99.90;;;;;;5011879;28;20488;-75
2022/01/05 10:54:24;;;;;;;5.40;2.95;;;2.00;99.90;;;;;;4993183;28;20487;-75
2022/01/05 10:56:50;;;;;;;9.50;2.92;;;2.00;99.90;;;;;;5011097;28;20112;-75
2022/01/05 10:59:28;;;;;;;5.53;2.85;;;1.90;99.90;;;;;;5011169;28;20113;-75
2022/01/05 11:01:54;;;;;;;7.20;3.00;;;1.90;99.90;;;;;;5011655;28;20050;-75
2022/01/05 11:04:21;;;;;;;6.80;2.92;;;2.00;99.90;;;;;;5011586;28;20145;-75
2022/01/05 11:07:03;;;;;;;6.97;2.35;;;2.10;99.90;;;;;;5011720;28;20060;-73
2022/01/05 11:09:31;;;;;;;8.70;2.90;;;2.30;99.90;;;;;;5002438;28;20066;-73
2022/01/05 11:11:58;;;;;;;6.50;2.60;;;2.50;99.90;;;;;;4991792;28;20113;-73
2022/01/05 11:14:34;;;;;;;6.55;2.60;;;2.50;99.90;;;;;;5009229;28;20517;-74
2022/01/05 11:17:05;;;;;;;7.57;2.53;;;2.40;99.90;;;;;;5010987;28;20502;-74
2022/01/05 11:19:40;;;;;;;4.97;2.25;;;2.40;99.90;;;;;;5010587;28;20037;-73
2022/01/05 11:22:14;;;;;;;7.25;2.90;;;2.30;99.90;;;;;;5006979;28;20022;-73
2022/01/05 11:24:40;;;;;;;7.90;2.65;;;2.20;99.90;;;;;;5009642;28;20042;-73
2022/01/05 11:27:08;;;;;;;6.47;3.30;;;2.20;99.90;;;;;;4997774;28;20033;-74
2022/01/05 11:29:34;;;;;;;7.53;2.75;;;2.10;99.90;;;;;;4994143;28;20033;-73
2022/01/05 11:32:03;;;;;;;7.85;2.90;;;2.10;99.90;;;;;;5011643;28;20129;-73
2022/01/05 11:34:29;;;;;;;7.25;2.58;;;2.10;99.90;;;;;;4993705;28;20505;-74
2022/01/05 11:36:56;;;;;;;7.55;3.20;;;2.10;99.90;;;;;;4993294;28;20157;-73
2022/01/05 11:39:22;;;;;;;6.43;2.60;;;2.00;99.90;;;;;;5021642;28;20017;-74
2022/01/05 11:41:49;;;;;;;7.22;2.53;;;1.90;99.90;;;;;;5017909;28;20033;-74
2022/01/05 11:44:17;;;;;;;5.57;2.70;;;2.00;99.90;;;;;;5014994;28;20026;-74
2022/01/05 11:46:45;;;;;;;7.82;3.10;;;2.00;99.90;;;;;;5011319;28;20014;-73
2022/01/05 11:49:14;;;;;;;6.05;2.42;;;1.80;99.90;;;;;;5011152;28;20018;-73
2022/01/05 11:51:42;;;;;;;8.75;3.20;;;1.80;99.90;;;;;;5011425;28;20025;-74
2022/01/05 11:54:19;;;;;;;5.47;2.30;;;1.80;99.90;;;;;;5011555;28;20026;-73
2022/01/05 11:56:47;;;;;;;6.45;2.97;;;1.90;99.90;;;;;;4994082;28;20438;-74
2022/01/05 11:59:24;;;;;;;5.93;3.05;;;1.80;99.90;;;;;;5011474;28;20026;-74
2022/01/05 12:02:08;;;;;;;4.43;2.20;;;1.80;99.90;;;;;;4993477;28;20021;-74
2022/01/05 12:04:51;;;;;;;6.47;2.83;;;1.80;99.90;;;;;;5010542;28;20048;-74
2022/01/05 12:07:43;;;;;;;5.93;2.67;;;1.80;99.90;;;;;;4996305;28;20029;-74
2022/01/05 12:10:21;;;;;;;6.40;2.88;;;1.80;99.90;;;;;;5004197;28;20056;-74
2022/01/05 12:13:04;;;;;;;5.80;2.47;;;1.80;99.90;;;;;;5013935;28;20026;-77
2022/01/05 12:15:38;;;;;;;8.20;2.78;;;1.70;99.90;;;;;;5014782;28;20036;-76
2022/01/05 12:18:05;;;;;;;10.18;3.03;;;1.70;99.90;;;;;;4999174;28;20085;-76
2022/01/05 12:20:40;;;;;;;7.07;2.60;;;1.70;99.90;;;;;;5028517;28;20034;-76
2022/01/05 12:23:24;;;;;;;6.63;2.63;;;1.70;99.90;;;;;;5006370;28;20414;-75
2022/01/05 12:26:05;;;;;;;7.63;2.88;;;1.70;99.90;;;;;;5018628;28;20033;-75
2022/01/05 12:28:39;;;;;;;14.50;4.05;;;1.70;99.90;;;;;;5029392;28;20406;-75
2022/01/05 12:31:09;;;;;;;10.55;3.53;;;1.70;99.90;;;;;;5018519;28;20041;-73
2022/01/05 12:34:01;;;;;;;8.10;3.28;;;1.70;99.90;;;;;;5024583;28;20022;-73
2022/01/05 12:36:38;;;;;;;11.25;3.30;;;1.70;99.90;;;;;;5018888;28;20064;-75
2022/01/05 12:39:07;;;;;;;8.68;3.30;;;1.70;99.90;;;;;;5006576;28;20029;-73
2022/01/05 12:41:38;;;;;;;7.53;2.95;;;1.70;99.90;;;;;;4997981;28;20037;-73
2022/01/05 12:44:26;;;;;;;7.47;2.92;;;1.70;99.90;;;;;;5011153;28;20026;-75
2022/01/05 12:46:53;;;;;;;6.75;3.00;;;1.70;99.90;;;;;;5029346;28;20041;-75
2022/01/05 12:49:25;;;;;;;8.15;2.78;;;1.80;99.90;;;;;;5009912;28;20539;-75
2022/01/05 12:52:05;;;;;;;8.00;2.92;;;1.70;99.90;;;;;;5020449;28;20025;-75
2022/01/05 12:54:41;;;;;;;5.97;2.90;;;1.80;99.90;;;;;;4995964;28;20411;-75
2022/01/05 12:57:15;;;;;;;6.63;2.63;;;1.80;99.90;;;;;;4992072;28;20108;-75